Terminal Aerodrome Forecast
Issued by NWS Jacksonville, FL

Home | Current Version | Previous Version | Text Only | Print | Product List | Glossary On
Versions: 1 2 3 4 5 6 7 8 9 10 11 12 13 14 15 16 17 18 19 20 21 22 23 24 25 26 27 28 29 30 31 32 33 34 35
720
FTUS42 KJAX 240354 AAD
TAFJAX
TAF AMD
KJAX 240354Z 2404/2424 20010G24KT P6SM -RA VCTS FEW035CB SCT060CB
      OVC120
      TEMPO 2404/2406 VRB20G30KT 4SM TSRA BR SCT015 BKN035CB OVC050
     FM240600 20010G15KT 4SM SHRA VCTS SCT010 BKN025CB OVC040
     FM241300 22015G25KT 4SM SHRA VCTS OVC020CB=

USA.gov is the U.S. government's official web portal to all federal, state and local government web resources and services.